Portada
METAR-TAF:

METAR-TAF

Aeropuertos :

San Joaquín, Bolivia

latitud: 13-04S, longitud: 064-49W, altitud: 140 m

Observación

El informe se hizo hace 35 minutos, a las 18:00 UTC
Viento 10 kt del noroeste
Temperatura 32°C
Humedad 71%
Presión 1008 hPa
Visibilidad 10 km o más
Escasas nubes a una altura de 1700 ft
Cielo nuboso a una altura de 20000 ft

METAR: SLJO 201800Z 32010KT 9999 FEW017 BKN200 32/26 Q1008

Hora: 14:35 (18:35 UTC)


TAF: falta

Observaciones y pronósticos meteorológicos de más de 4000 aeropuertos (mensajes METAR y TAF).

Los puntos amarillos y rojos representan las estaciones disponibles.

Ponga el ratón en el punto deseado para ver el nombre de la estación.

Haga clic para ver las observaciones y los pronósticos meteorológicos.

Para cambiar el mapa : haga clic en los botones verdes con una cruz de color negro para hacer un zoom, en el botón verde con un guión para alejar o en las flechas verdes para mapas adyacentes.


METAR-TAF: